DW5690 Weather Reports


Display with metric or nautical units.
time (UTC)temp
F
wind
direction
speed
MPH
gust
MPH
rain 1hr
in
rain 24hr
in
rain mn
in
humidity
%
barometer
mb
20220808064130 76 95 0.0 0.0 0.00 0.38 0.00 91 1016.9
20220808063109 76 95 0.0 0.0 0.00 0.38 0.00 91 1017.0
20220808062115 76 95 0.0 0.0 0.00 0.38 0.00 91 1017.0
20220808061111 77 95 0.0 0.0 0.00 0.38 0.00 90 1016.9
20220808060105 77 95 0.0 0.0 0.00 0.38 0.00 90 1016.8
20220808055118 77 95 0.0 0.0 0.00 0.38 0.00 89 1016.8
20220808054058 78 95 0.0 0.0 0.00 0.38 0.00 89 1016.7
20220808053110 78 95 0.0 0.0 0.00 0.38 0.00 88 1016.7
20220808052125 78 101 0.0 2.0 0.00 0.38 0.00 88 1016.7
20220808051121 78 140 0.0 0.0 0.00 0.38 0.00 87 1016.6
20220808050145 79 142 0.0 1.0 0.00 0.38 0.00 87 1016.5
20220808045139 79 75 0.0 0.0 0.00 0.38 0.26 86 1016.4
20220808044112 79 84 0.0 2.0 0.00 0.38 0.26 86 1016.4
20220808043048 79 117 0.0 4.0 0.00 0.38 0.26 85 1016.4
20220808042108 79 96 0.0 3.0 0.00 0.38 0.26 85 1016.4
20220808041058 80 131 0.0 3.0 0.00 0.38 0.26 84 1016.5
20220808040121 80 73 0.0 4.0 0.00 0.38 0.26 84 1016.6
20220808035113 80 88 0.0 4.0 0.00 0.38 0.26 83 1016.4
20220808034128 80 122 0.0 2.0 0.00 0.38 0.26 82 1016.2
20220808033137 81 131 0.0 2.0 0.00 0.38 0.26 82 1016.1
20220808032128 81 96 0.0 2.0 0.00 0.38 0.26 81 1016.0
20220808031149 81 105 0.0 4.0 0.00 0.38 0.26 80 1016.0
20220808030211 82 126 1.0 4.0 0.00 0.38 0.26 79 1015.8
20220808025219 82 86 0.0 4.0 0.00 0.37 0.26 78 1016.0
20220807222532 92 329 0.0 1.0 0.00 0.09 0.10 62 1014.2
20220807221521 89 329 0.0 1.0 0.00 0.09 0.10 63 1013.9
20220807220519 86 329 0.0 2.0 0.00 0.09 0.10 73 1014.2
20220807215447 84 77 0.0 0.0 0.00 0.09 0.10 81 1014.3
20220807214426 83 77 0.0 0.0 0.00 0.09 0.10 86 1014.4
20220807213403 82 77 0.0 0.0 0.00 0.09 0.10 88 1014.5
20220807212353 82 77 0.0 0.0 0.00 0.09 0.10 87 1014.6
20220807211400 82 77 0.0 2.0 0.00 0.09 0.10 87 1014.8
20220807210339 82 90 0.0 2.0 0.00 0.09 0.10 90 1015.2
20220807205346 81 234 0.0 0.0 0.00 0.09 0.10 90 1015.2
20220807204346 82 238 0.0 2.0 0.06 0.09 0.10 87 1015.3
20220807203327 84 192 1.0 7.0 0.55 0.08 0.09 75 1015.5
20220807202314 90 134 1.0 10.0 0.00 0.00 0.00 63 1015.8
20220807201250 91 217 3.0 10.0 0.00 0.00 0.00 54 1015.6
20220807200303 96 186 1.0 8.0 0.00 0.00 0.00 48 1015.5
20220807195258 98 186 1.0 8.0 0.00 0.00 0.00 42 1015.4
20220807194249 99 111 1.0 8.0 0.00 0.00 0.00 44 1015.5
20220807193221 96 78 2.0 8.0 0.00 0.00 0.00 47 1015.8
20220807192159 96 198 3.0 10.0 0.00 0.00 0.00 48 1015.9
20220807191214 97 115 1.0 10.0 0.00 0.00 0.00 46 1016.0
20220807190149 98 84 3.0 8.0 0.00 0.00 0.00 43 1016.1
20220807185121 97 119 1.0 7.0 0.00 0.00 0.00 43 1016.1
20220807184111 97 284 1.0 6.0 0.00 0.00 0.00 43 1016.2
20220807183133 96 80 1.0 6.0 0.00 0.00 0.00 46 1016.4
20220807182104 95 228 1.0 5.0 0.00 0.00 0.00 48 1016.6
20220807181047 96 231 1.0 5.0 0.00 0.00 0.00 48 1016.7
20220807180027 96 128 1.0 5.0 0.00 0.00 0.00 49 1016.8
20220807175042 95 211 1.0 5.0 0.00 0.00 0.00 51 1017.1
20220807174052 94 203 1.0 7.0 0.00 0.00 0.00 53 1017.3
20220807173030 94 246 2.0 12.0 0.00 0.00 0.00 53 1017.5
20220807172013 94 67 1.0 8.0 0.00 0.00 0.00 51 1017.6
20220807171032 95 89 2.0 8.0 0.00 0.00 0.00 51 1017.6
20220807170027 94 103 1.0 8.0 0.00 0.00 0.00 53 1017.9
20220807164958 93 96 2.0 6.0 0.00 0.00 0.00 55 1018.0
20220807163928 94 94 1.0 10.0 0.00 0.00 0.00 54 1018.1
20220807162920 92 81 3.0 10.0 0.00 0.00 0.00 57 1018.2
20220807161924 92 87 2.0 9.0 0.00 0.00 0.00 57 1018.2
20220807160937 91 99 1.0 6.0 0.00 0.00 0.00 59 1018.2
20220807155910 91 321 1.0 7.0 0.00 0.00 0.00 61 1018.3
20220807154902 89 98 1.0 7.0 0.00 0.00 0.00 65 1018.4
20220807153839 87 193 1.0 5.0 0.00 0.00 0.00 70 1018.4
20220807152833 86 108 1.0 8.0 0.00 0.00 0.00 72 1018.3
20220807151850 86 190 1.0 8.0 0.00 0.00 0.00 73 1018.3
20220807150826 85 140 1.0 7.0 0.00 0.00 0.00 77 1018.3
20220807145831 84 66 1.0 7.0 0.00 0.00 0.00 77 1018.3
20220807144801 84 109 1.0 6.0 0.00 0.00 0.00 79 1018.4
20220807143819 83 84 1.0 6.0 0.00 0.00 0.00 81 1018.4
20220807142831 83 122 0.0 6.0 0.00 0.00 0.00 82 1018.4
20220807141818 82 123 1.0 6.0 0.00 0.00 0.00 84 1018.3
20220807140809 81 75 0.0 6.0 0.00 0.00 0.00 88 1018.3
20220807135742 80 75 0.0 4.0 0.00 0.00 0.00 91 1018.3
20220807134712 79 198 0.0 4.0 0.00 0.00 0.00 92 1018.1
20220807133702 78 105 0.0 2.0 0.00 0.00 0.00 93 1018.0
20220807132634 78 98 0.0 0.0 0.00 0.00 0.00 94 1017.9
20220807131648 77 81 0.0 3.0 0.00 0.00 0.00 94 1017.8
20220807130659 77 90 0.0 4.0 0.00 0.00 0.00 94 1017.7
20220807125704 77 126 0.0 1.0 0.00 0.00 0.00 94 1017.6
20220807124646 76 126 0.0 0.0 0.00 0.00 0.00 94 1017.5
20220807123655 76 126 0.0 0.0 0.00 0.00 0.00 95 1017.4
20220807122625 76 126 0.0 0.0 0.00 0.00 0.00 94 1017.4
20220807121613 75 126 0.0 0.0 0.00 0.00 0.00 94 1017.3
20220807120539 75 126 0.0 0.0 0.00 0.00 0.00 94 1017.2
20220807115544 75 126 0.0 0.0 0.00 0.00 0.00 94 1017.0
20220807114533 74 126 0.0 0.0 0.00 0.00 0.00 94 1017.0
20220807113537 74 126 0.0 0.0 0.00 0.00 0.00 93 1016.8
20220807112535 74 126 0.0 0.0 0.00 0.00 0.00 93 1016.8
20220807111546 74 126 0.0 0.0 0.00 0.00 0.00 93 1016.6
20220807110533 74 126 0.0 0.0 0.00 0.00 0.00 93 1016.4
20220807105526 74 126 0.0 0.0 0.00 0.00 0.00 93 1016.4
20220807104454 74 126 0.0 0.0 0.00 0.00 0.00 92 1016.3
20220807103436 74 126 0.0 0.0 0.00 0.00 0.00 92 1016.2
20220807102446 75 126 0.0 0.0 0.00 0.00 0.00 92 1016.1
20220807101505 75 126 0.0 0.0 0.00 0.00 0.00 91 1016.1
20220807100521 75 126 0.0 0.0 0.00 0.00 0.00 91 1016.2
20220807095507 75 126 0.0 0.0 0.00 0.00 0.00 91 1016.3
20220807094515 76 126 0.0 0.0 0.00 0.00 0.00 91 1016.3
20220807093502 76 126 0.0 0.0 0.00 0.00 0.00 92 1016.2
20220807092524 76 126 0.0 0.0 0.00 0.00 0.00 91 1016.1
20220807091544 76 126 0.0 0.0 0.00 0.00 0.00 91 1016.3
20220807090609 76 126 0.0 0.0 0.00 0.00 0.00 92 1016.4
20220807085538 76 126 0.0 0.0 0.00 0.00 0.00 91 1016.5
20220807084542 76 126 0.0 0.0 0.00 0.00 0.00 92 1016.5
20220807083543 76 126 0.0 0.0 0.00 0.00 0.00 91 1016.3
20220807082524 76 126 0.0 0.0 0.00 0.00 0.00 92 1016.3
20220807081545 76 126 0.0 0.0 0.00 0.00 0.00 92 1016.4
20220807080538 76 126 0.0 0.0 0.00 0.00 0.00 91 1016.5
20220807075540 76 126 0.0 0.0 0.00 0.00 0.00 91 1016.5
20220807074603 76 126 0.0 0.0 0.00 0.00 0.00 91 1016.5
20220807073609 76 126 0.0 0.0 0.00 0.00 0.00 91 1016.6
20220807072601 76 126 0.0 0.0 0.00 0.00 0.00 90 1016.4
20220807071623 76 126 0.0 0.0 0.00 0.00 0.00 89 1016.3
20220807070551 77 126 0.0 0.0 0.00 0.00 0.00 88 1016.3
20220807065616 77 126 0.0 0.0 0.00 0.00 0.00 88 1016.5
20220807064629 77 126 0.0 0.0 0.00 0.00 0.00 87 1016.5